No particular awareness of the weather is required.    There are no Weather-warnings


Meteo18 Weather Cam more information Meteo18 Weather Cam


Thunder radar more information blitzortung!


Rain radar more information rain snow radar


Visit our other weather sites:

Template documentation
and downloads

And another site



Weather Underground History page Text

Daily Summary for July 31, 2016 Units:  Metric    English   Both
« Previous Day
Next Day »
Daily Weekly Monthly Yearly Custom
  High: Low: Average:
Temperature: 24.3 °C 15.6 °C 20.4 °C
Dew Point: 14.9 °C 10.5 °C 12.7 °C
Humidity: 84 % 43 % 63 %
Wind Speed: 20.9 km/h 0.0 km/h 4.7 km/h
Wind Gust: 30.6 km/h - -
Wind:- - West
Pressure: 1018.5 hPa 1013.1 hPa -
Precipitation: 0.0 mm    
Historical Graphs
 
 
Tabular Data for July 31, 2016
Time Temperature Dew Point Pressure Wind Wind Speed Wind Gust Humidity Rainfall Rate (Hourly)
00:02 19.7 °C 13.4 °C 1013.1 hPa West 4.8 km/h 9.7 km/h 67 % 0.0 mm
00:12 19.7 °C 13.4 °C 1013.1 hPa NNW 9.7 km/h 11.3 km/h 67 % 0.0 mm
00:17 19.7 °C 13.4 °C 1013.1 hPa NNW 4.8 km/h 11.3 km/h 67 % 0.0 mm
00:22 19.7 °C 13.4 °C 1013.1 hPa NNW 8.0 km/h 14.5 km/h 67 % 0.0 mm
00:27 19.7 °C 13.4 °C 1013.1 hPa North 6.4 km/h 14.5 km/h 67 % 0.0 mm
00:32 19.7 °C 13.4 °C 1013.1 hPa North 4.8 km/h 14.5 km/h 67 % 0.0 mm
00:37 19.7 °C 13.4 °C 1013.4 hPa NNE 12.9 km/h 14.5 km/h 67 % 0.0 mm
00:42 19.7 °C 13.2 °C 1013.4 hPa NNE 4.8 km/h 12.9 km/h 66 % 0.0 mm
00:52 19.7 °C 13.4 °C 1013.4 hPa NNW 4.8 km/h 14.5 km/h 67 % 0.0 mm
00:57 19.6 °C 13.3 °C 1013.4 hPa NNW 4.8 km/h 16.1 km/h 67 % 0.0 mm
01:02 19.5 °C 13.4 °C 1013.8 hPa NNW 4.8 km/h 16.1 km/h 68 % 0.0 mm
01:12 19.3 °C 13.2 °C 1013.8 hPa NE 3.2 km/h 16.1 km/h 68 % 0.0 mm
01:17 19.2 °C 13.4 °C 1013.8 hPa NNE 1.6 km/h 11.3 km/h 69 % 0.0 mm
01:22 19.1 °C 13.3 °C 1013.8 hPa NW 3.2 km/h 11.3 km/h 69 % 0.0 mm
01:27 18.9 °C 13.3 °C 1014.1 hPa Calm   9.7 km/h 70 % 0.0 mm
01:32 18.8 °C 13.2 °C 1014.4 hPa North 4.8 km/h 8.0 km/h 70 % 0.0 mm
01:37 18.8 °C 13.2 °C 1014.4 hPa North 4.8 km/h 8.0 km/h 70 % 0.0 mm
01:42 18.8 °C 13.4 °C 1014.4 hPa North 1.6 km/h 8.0 km/h 71 % 0.0 mm
01:52 18.8 °C 13.4 °C 1014.8 hPa NNW 4.8 km/h 8.0 km/h 71 % 0.0 mm
01:57 18.8 °C 13.4 °C 1014.8 hPa NNE 3.2 km/h 6.4 km/h 71 % 0.0 mm
02:02 18.8 °C 13.4 °C 1014.8 hPa Calm   6.4 km/h 71 % 0.0 mm
02:12 18.8 °C 13.4 °C 1014.8 hPa Calm   4.8 km/h 71 % 0.0 mm
02:17 18.7 °C 13.3 °C 1014.8 hPa Calm   4.8 km/h 71 % 0.0 mm
02:22 18.6 °C 13.5 °C 1014.8 hPa Calm   4.8 km/h 72 % 0.0 mm
02:32 18.5 °C 13.6 °C 1014.4 hPa Calm   4.8 km/h 73 % 0.0 mm
02:37 18.4 °C 13.5 °C 1014.4 hPa Calm   4.8 km/h 73 % 0.0 mm
02:42 18.4 °C 13.5 °C 1014.4 hPa WNW 1.6 km/h 3.2 km/h 73 % 0.0 mm
02:52 18.3 °C 13.4 °C 1014.1 hPa WNW 1.6 km/h 3.2 km/h 73 % 0.0 mm
02:57 18.3 °C 13.4 °C 1014.1 hPa WNW 1.6 km/h 4.8 km/h 73 % 0.0 mm
03:02 18.2 °C 13.5 °C 1013.8 hPa WNW 1.6 km/h 4.8 km/h 74 % 0.0 mm
03:12 18.1 °C 13.4 °C 1013.8 hPa Calm   3.2 km/h 74 % 0.0 mm
03:17 18.1 °C 13.4 °C 1013.8 hPa WNW 1.6 km/h 4.8 km/h 74 % 0.0 mm
03:22 18.2 °C 13.5 °C 1013.8 hPa NW 1.6 km/h 4.8 km/h 74 % 0.0 mm
03:27 18.2 °C 13.5 °C 1013.8 hPa WNW 1.6 km/h 4.8 km/h 74 % 0.0 mm
03:37 18.2 °C 13.5 °C 1013.8 hPa NW 1.6 km/h 4.8 km/h 74 % 0.0 mm
03:42 18.1 °C 13.4 °C 1013.8 hPa NW 4.8 km/h 6.4 km/h 74 % 0.0 mm
03:47 18.1 °C 13.6 °C 1013.8 hPa NNW 1.6 km/h 6.4 km/h 75 % 0.0 mm
03:52 18.1 °C 13.6 °C 1013.8 hPa WNW 1.6 km/h 6.4 km/h 75 % 0.0 mm
04:02 18.1 °C 13.6 °C 1013.8 hPa NW 1.6 km/h 8.0 km/h 75 % 0.0 mm
04:12 17.8 °C 13.3 °C 1013.4 hPa WNW 4.8 km/h 6.4 km/h 75 % 0.0 mm
04:17 17.7 °C 13.4 °C 1013.8 hPa NNW 3.2 km/h 4.8 km/h 76 % 0.0 mm
04:27 17.4 °C 13.1 °C 1013.8 hPa NW 3.2 km/h 4.8 km/h 76 % 0.0 mm
04:32 17.2 °C 13.1 °C 1013.8 hPa NW 3.2 km/h 6.4 km/h 77 % 0.0 mm
04:42 17.1 °C 13.2 °C 1013.4 hPa NW 3.2 km/h 8.0 km/h 78 % 0.0 mm
04:47 16.9 °C 13.0 °C 1013.4 hPa NW 3.2 km/h 8.0 km/h 78 % 0.0 mm
04:52 16.8 °C 13.1 °C 1013.4 hPa NW 6.4 km/h 8.0 km/h 79 % 0.0 mm
04:57 16.7 °C 13.0 °C 1013.4 hPa NW 4.8 km/h 8.0 km/h 79 % 0.0 mm
05:02 16.6 °C 12.9 °C 1013.8 hPa Calm   8.0 km/h 79 % 0.0 mm
05:12 16.4 °C 12.9 °C 1013.8 hPa West 3.2 km/h 6.4 km/h 80 % 0.0 mm
05:22 16.3 °C 13.0 °C 1013.8 hPa Calm   6.4 km/h 81 % 0.0 mm
05:32 16.3 °C 13.0 °C 1013.8 hPa North 8.0 km/h 8.0 km/h 81 % 0.0 mm
05:42 16.2 °C 12.9 °C 1013.8 hPa Calm   8.0 km/h 81 % 0.0 mm
05:47 16.2 °C 12.9 °C 1013.8 hPa Calm   8.0 km/h 81 % 0.0 mm
05:52 16.1 °C 13.0 °C 1013.8 hPa Calm   8.0 km/h 82 % 0.0 mm
06:02 16.0 °C 12.9 °C 1013.8 hPa NW 1.6 km/h 3.2 km/h 82 % 0.0 mm
06:12 15.9 °C 13.0 °C 1013.8 hPa Calm   3.2 km/h 83 % 0.0 mm
06:17 15.8 °C 12.9 °C 1013.8 hPa Calm   4.8 km/h 83 % 0.0 mm
06:22 15.7 °C 12.8 °C 1013.8 hPa Calm   4.8 km/h 83 % 0.0 mm
06:32 15.7 °C 12.8 °C 1013.8 hPa Calm   4.8 km/h 83 % 0.0 mm
06:37 15.7 °C 13.0 °C 1013.8 hPa Calm   4.8 km/h 84 % 0.0 mm
06:42 15.7 °C 12.8 °C 1013.8 hPa NW 1.6 km/h 4.8 km/h 83 % 0.0 mm
06:47 15.6 °C 12.9 °C 1013.8 hPa Calm   4.8 km/h 84 % 0.0 mm
06:52 15.6 °C 12.9 °C 1013.8 hPa WNW 1.6 km/h 4.8 km/h 84 % 0.0 mm
06:57 15.7 °C 13.0 °C 1013.8 hPa Calm   8.0 km/h 84 % 0.0 mm
07:02 15.7 °C 13.0 °C 1013.8 hPa WNW 3.2 km/h 8.0 km/h 84 % 0.0 mm
07:12 15.8 °C 13.1 °C 1013.8 hPa NW 1.6 km/h 4.8 km/h 84 % 0.0 mm
07:17 15.9 °C 13.2 °C 1013.8 hPa WNW 3.2 km/h 4.8 km/h 84 % 0.0 mm
07:22 16.1 °C 13.2 °C 1014.1 hPa WNW 1.6 km/h 4.8 km/h 83 % 0.0 mm
07:27 16.1 °C 13.2 °C 1014.1 hPa Calm   4.8 km/h 83 % 0.0 mm
07:32 16.1 °C 13.2 °C 1014.1 hPa Calm   6.4 km/h 83 % 0.0 mm
07:42 16.3 °C 13.4 °C 1014.1 hPa WNW 1.6 km/h 4.8 km/h 83 % 0.0 mm
07:47 16.3 °C 13.4 °C 1014.4 hPa WNW 3.2 km/h 4.8 km/h 83 % 0.0 mm
07:52 16.3 °C 13.2 °C 1014.4 hPa WNW 3.2 km/h 8.0 km/h 82 % 0.0 mm
08:02 16.5 °C 13.4 °C 1014.4 hPa Calm   8.0 km/h 82 % 0.0 mm
08:12 16.8 °C 13.7 °C 1014.4 hPa NW 3.2 km/h 6.4 km/h 82 % 0.0 mm
08:17 16.9 °C 13.6 °C 1014.4 hPa Calm   6.4 km/h 81 % 0.0 mm
08:22 17.1 °C 13.8 °C 1014.4 hPa NW 1.6 km/h 6.4 km/h 81 % 0.0 mm
08:32 17.2 °C 13.9 °C 1014.8 hPa Calm   6.4 km/h 81 % 0.0 mm
08:42 17.4 °C 13.9 °C 1014.8 hPa WNW 3.2 km/h 6.4 km/h 80 % 0.0 mm
08:52 17.7 °C 14.0 °C 1014.8 hPa WNW 1.6 km/h 8.0 km/h 79 % 0.0 mm
08:57 17.9 °C 14.0 °C 1014.8 hPa WNW 3.2 km/h 8.0 km/h 78 % 0.0 mm
09:02 18.1 °C 14.0 °C 1014.8 hPa West 1.6 km/h 6.4 km/h 77 % 0.0 mm
09:12 18.4 °C 13.9 °C 1014.8 hPa NW 3.2 km/h 8.0 km/h 75 % 0.0 mm
09:17 18.4 °C 13.9 °C 1014.8 hPa NW 3.2 km/h 8.0 km/h 75 % 0.0 mm
09:22 18.5 °C 14.0 °C 1014.8 hPa NW 4.8 km/h 8.0 km/h 75 % 0.0 mm
09:32 18.8 °C 14.1 °C 1014.8 hPa West 1.6 km/h 9.7 km/h 74 % 0.0 mm
09:42 19.3 °C 14.3 °C 1014.8 hPa NW 4.8 km/h 6.4 km/h 73 % 0.0 mm
09:47 19.4 °C 14.2 °C 1015.1 hPa WNW 6.4 km/h 6.4 km/h 72 % 0.0 mm
09:52 19.5 °C 14.3 °C 1015.1 hPa North 4.8 km/h 11.3 km/h 72 % 0.0 mm
09:57 19.4 °C 14.4 °C 1015.1 hPa NNE 4.8 km/h 11.3 km/h 73 % 0.0 mm
10:02 19.7 °C 14.5 °C 1015.1 hPa NNW 4.8 km/h 11.3 km/h 72 % 0.0 mm
10:07 19.9 °C 14.5 °C 1015.1 hPa NW 1.6 km/h 11.3 km/h 71 % 0.0 mm
10:12 20.1 °C 14.2 °C 1015.1 hPa North 6.4 km/h 11.3 km/h 69 % 0.0 mm
10:17 20.1 °C 14.9 °C 1015.1 hPa North 6.4 km/h 11.3 km/h 72 % 0.0 mm
10:22 20.3 °C 14.4 °C 1015.1 hPa NW 6.4 km/h 11.3 km/h 69 % 0.0 mm
10:32 20.4 °C 13.8 °C 1015.1 hPa NW 6.4 km/h 14.5 km/h 66 % 0.0 mm
10:42 20.7 °C 14.4 °C 1015.1 hPa WSW 6.4 km/h 14.5 km/h 67 % 0.0 mm
10:52 20.9 °C 14.3 °C 1015.5 hPa NNE 6.4 km/h 14.5 km/h 66 % 0.0 mm
11:02 20.8 °C 14.0 °C 1015.5 hPa WNW 11.3 km/h 19.3 km/h 65 % 0.0 mm
11:12 21.3 °C 14.2 °C 1015.5 hPa WNW 1.6 km/h 19.3 km/h 64 % 0.0 mm
11:17 21.7 °C 13.8 °C 1015.5 hPa NW 4.8 km/h 19.3 km/h 61 % 0.0 mm
11:22 21.7 °C 13.3 °C 1015.5 hPa North 11.3 km/h 16.1 km/h 59 % 0.0 mm
11:32 21.9 °C 13.3 °C 1015.5 hPa NNW 4.8 km/h 17.7 km/h 58 % 0.0 mm
11:42 21.9 °C 13.5 °C 1015.5 hPa WNW 8.0 km/h 16.1 km/h 59 % 0.0 mm
11:47 21.7 °C 13.1 °C 1015.5 hPa NW 9.7 km/h 16.1 km/h 58 % 0.0 mm
11:52 21.4 °C 12.5 °C 1015.8 hPa WNW 4.8 km/h 17.7 km/h 57 % 0.0 mm
11:57 21.4 °C 13.1 °C 1015.8 hPa WNW 9.7 km/h 17.7 km/h 59 % 0.0 mm
12:07 21.7 °C 13.1 °C 1015.8 hPa NW 9.7 km/h 16.1 km/h 58 % 0.0 mm
12:12 21.5 °C 12.1 °C 1015.8 hPa NNW 12.9 km/h 16.1 km/h 55 % 0.0 mm
12:17 22.0 °C 12.0 °C 1015.8 hPa NW 12.9 km/h 22.5 km/h 53 % 0.0 mm
12:22 22.3 °C 12.5 °C 1015.8 hPa NNE 1.6 km/h 22.5 km/h 54 % 0.0 mm
12:32 22.4 °C 12.3 °C 1015.8 hPa WNW 12.9 km/h 20.9 km/h 53 % 0.0 mm
12:42 22.8 °C 10.9 °C 1015.8 hPa NNW 4.8 km/h 19.3 km/h 47 % 0.0 mm
12:52 22.6 °C 11.3 °C 1016.1 hPa WSW 3.2 km/h 17.7 km/h 49 % 0.0 mm
12:57 22.5 °C 11.3 °C 1016.1 hPa NNE 8.0 km/h 17.7 km/h 49 % 0.0 mm
13:02 22.6 °C 11.3 °C 1016.1 hPa NW 6.4 km/h 16.1 km/h 49 % 0.0 mm
13:12 22.4 °C 12.3 °C 1016.1 hPa NW 1.6 km/h 20.9 km/h 53 % 0.0 mm
13:17 22.7 °C 12.0 °C 1016.1 hPa North 9.7 km/h 20.9 km/h 51 % 0.0 mm
13:22 22.8 °C 12.1 °C 1016.1 hPa NNW 3.2 km/h 20.9 km/h 51 % 0.0 mm
13:32 22.7 °C 12.3 °C 1016.1 hPa West 3.2 km/h 20.9 km/h 52 % 0.0 mm
13:37 22.6 °C 12.2 °C 1016.1 hPa WNW 12.9 km/h 20.9 km/h 52 % 0.0 mm
13:42 22.6 °C 12.5 °C 1016.5 hPa NW 4.8 km/h 20.9 km/h 53 % 0.0 mm
13:47 22.6 °C 11.9 °C 1016.5 hPa NNW 11.3 km/h 20.9 km/h 51 % 0.0 mm
13:52 22.6 °C 12.2 °C 1016.1 hPa NW 8.0 km/h 20.9 km/h 52 % 0.0 mm
13:57 22.8 °C 11.2 °C 1016.5 hPa West 16.1 km/h 17.7 km/h 48 % 0.0 mm
14:02 22.4 °C 11.5 °C 1016.5 hPa NNW 11.3 km/h 24.1 km/h 50 % 0.0 mm
14:12 22.2 °C 11.6 °C 1016.5 hPa NNW 6.4 km/h 24.1 km/h 51 % 0.0 mm
14:17 22.1 °C 11.5 °C 1016.5 hPa NW 12.9 km/h 19.3 km/h 51 % 0.0 mm
14:22 21.9 °C 11.6 °C 1016.5 hPa WNW 6.4 km/h 19.3 km/h 52 % 0.0 mm
14:32 22.9 °C 12.2 °C 1016.5 hPa NNW 11.3 km/h 19.3 km/h 51 % 0.0 mm
14:42 22.4 °C 10.8 °C 1016.5 hPa NW 9.7 km/h 20.9 km/h 48 % 0.0 mm
14:52 22.5 °C 11.3 °C 1016.5 hPa WNW 11.3 km/h 24.1 km/h 49 % 0.0 mm
15:02 22.7 °C 10.5 °C 1016.5 hPa WNW 8.0 km/h 17.7 km/h 46 % 0.0 mm
15:12 23.4 °C 11.1 °C 1016.5 hPa WNW 9.7 km/h 16.1 km/h 46 % 0.0 mm
15:17 23.3 °C 11.4 °C 1016.5 hPa NNW 11.3 km/h 20.9 km/h 47 % 0.0 mm
15:22 23.1 °C 11.2 °C 1016.5 hPa NW 6.4 km/h 20.9 km/h 47 % 0.0 mm
15:27 23.1 °C 11.8 °C 1016.5 hPa WNW 6.4 km/h 20.9 km/h 49 % 0.0 mm
15:32 23.2 °C 11.9 °C 1016.5 hPa WNW 11.3 km/h 20.9 km/h 49 % 0.0 mm
15:37 23.1 °C 11.8 °C 1016.5 hPa SW 12.9 km/h 20.9 km/h 49 % 0.0 mm
15:42 23.1 °C 12.1 °C 1016.5 hPa WSW 1.6 km/h 20.9 km/h 50 % 0.0 mm
15:47 23.3 °C 12.6 °C 1016.5 hPa NW 9.7 km/h 20.9 km/h 51 % 0.0 mm
15:52 23.5 °C 12.5 °C 1016.5 hPa WNW 4.8 km/h 20.9 km/h 50 % 0.0 mm
16:02 23.3 °C 12.6 °C 1016.5 hPa North 12.9 km/h 19.3 km/h 51 % 0.0 mm
16:12 23.5 °C 11.5 °C 1016.5 hPa NW 4.8 km/h 19.3 km/h 47 % 0.0 mm
16:17 23.5 °C 11.9 °C 1016.5 hPa WNW 6.4 km/h 19.3 km/h 48 % 0.0 mm
16:22 23.7 °C 11.4 °C 1016.5 hPa NW 8.0 km/h 22.5 km/h 46 % 0.0 mm
16:32 23.6 °C 11.3 °C 1016.5 hPa WNW 6.4 km/h 22.5 km/h 46 % 0.0 mm
16:37 23.5 °C 12.2 °C 1016.5 hPa NNW 9.7 km/h 22.5 km/h 49 % 0.0 mm
16:42 23.7 °C 12.0 °C 1016.5 hPa WNW 20.9 km/h 22.5 km/h 48 % 0.0 mm
16:47 23.6 °C 11.9 °C 1016.5 hPa NW 8.0 km/h 20.9 km/h 48 % 0.0 mm
16:52 23.8 °C 12.1 °C 1016.5 hPa NW 16.1 km/h 20.9 km/h 48 % 0.0 mm
16:57 23.6 °C 11.3 °C 1016.8 hPa NNE 6.4 km/h 25.7 km/h 46 % 0.0 mm
17:02 23.5 °C 11.2 °C 1016.5 hPa NW 3.2 km/h 30.6 km/h 46 % 0.0 mm
17:12 23.9 °C 11.6 °C 1016.5 hPa WNW 6.4 km/h 30.6 km/h 46 % 0.0 mm
17:17 24.3 °C 11.3 °C 1016.5 hPa WNW 8.0 km/h 22.5 km/h 44 % 0.0 mm
17:22 24.3 °C 10.9 °C 1016.5 hPa WNW 8.0 km/h 16.1 km/h 43 % 0.0 mm
17:32 24.1 °C 11.1 °C 1016.5 hPa North 11.3 km/h 22.5 km/h 44 % 0.0 mm
17:37 23.9 °C 11.2 °C 1016.8 hPa NW 12.9 km/h 22.5 km/h 45 % 0.0 mm
17:42 24.0 °C 12.0 °C 1016.5 hPa NNW 12.9 km/h 19.3 km/h 47 % 0.0 mm
17:47 24.0 °C 12.0 °C 1016.5 hPa NW 14.5 km/h 22.5 km/h 47 % 0.0 mm
17:52 23.9 °C 11.6 °C 1016.5 hPa North 6.4 km/h 22.5 km/h 46 % 0.0 mm
17:57 23.7 °C 11.4 °C 1016.5 hPa NNW 4.8 km/h 22.5 km/h 46 % 0.0 mm
18:02 23.8 °C 11.5 °C 1016.5 hPa NW 6.4 km/h 22.5 km/h 46 % 0.0 mm
18:07 24.1 °C 12.1 °C 1016.5 hPa West 8.0 km/h 22.5 km/h 47 % 0.0 mm
18:12 23.9 °C 11.2 °C 1016.5 hPa WNW 14.5 km/h 22.5 km/h 45 % 0.0 mm
18:17 23.9 °C 11.2 °C 1016.5 hPa NW 4.8 km/h 17.7 km/h 45 % 0.0 mm
18:22 24.1 °C 11.4 °C 1016.5 hPa NW 17.7 km/h 17.7 km/h 45 % 0.0 mm
18:27 24.1 °C 11.4 °C 1016.5 hPa NW 3.2 km/h 20.9 km/h 45 % 0.0 mm
18:32 24.2 °C 11.5 °C 1016.5 hPa WNW 6.4 km/h 20.9 km/h 45 % 0.0 mm
18:42 24.1 °C 11.4 °C 1016.5 hPa WNW 8.0 km/h 19.3 km/h 45 % 0.0 mm
18:52 23.9 °C 11.9 °C 1016.5 hPa WNW 6.4 km/h 19.3 km/h 47 % 0.0 mm
18:57 24.2 °C 11.5 °C 1016.5 hPa West 6.4 km/h 17.7 km/h 45 % 0.0 mm
19:02 24.1 °C 11.8 °C 1016.5 hPa NNW 4.8 km/h 17.7 km/h 46 % 0.0 mm
19:12 23.9 °C 11.6 °C 1016.8 hPa WNW 9.7 km/h 12.9 km/h 46 % 0.0 mm
19:17 24.1 °C 11.8 °C 1016.8 hPa WNW 12.9 km/h 17.7 km/h 46 % 0.0 mm
19:22 24.0 °C 11.7 °C 1016.8 hPa NNW 8.0 km/h 17.7 km/h 46 % 0.0 mm
19:27 24.1 °C 11.8 °C 1016.8 hPa WNW 9.7 km/h 19.3 km/h 46 % 0.0 mm
19:32 23.9 °C 11.9 °C 1016.8 hPa WNW 9.7 km/h 19.3 km/h 47 % 0.0 mm
19:37 23.7 °C 11.7 °C 1016.8 hPa NW 4.8 km/h 16.1 km/h 47 % 0.0 mm
19:42 23.9 °C 11.9 °C 1016.8 hPa WNW 4.8 km/h 16.1 km/h 47 % 0.0 mm
19:47 24.0 °C 12.0 °C 1016.8 hPa West 1.6 km/h 16.1 km/h 47 % 0.0 mm
19:52 23.9 °C 11.9 °C 1017.2 hPa West 4.8 km/h 16.1 km/h 47 % 0.0 mm
20:02 23.9 °C 11.9 °C 1017.2 hPa WNW 3.2 km/h 16.1 km/h 47 % 0.0 mm
20:12 23.8 °C 12.1 °C 1017.2 hPa WNW 8.0 km/h 12.9 km/h 48 % 0.0 mm
20:17 23.4 °C 12.1 °C 1017.2 hPa WSW 4.8 km/h 12.9 km/h 49 % 0.0 mm
20:22 23.4 °C 12.4 °C 1017.2 hPa West 4.8 km/h 12.9 km/h 50 % 0.0 mm
20:27 23.4 °C 12.4 °C 1017.2 hPa WNW 4.8 km/h 12.9 km/h 50 % 0.0 mm
20:32 23.4 °C 12.4 °C 1017.2 hPa WNW 6.4 km/h 9.7 km/h 50 % 0.0 mm
20:47 23.3 °C 12.6 °C 1017.5 hPa WNW 6.4 km/h 9.7 km/h 51 % 0.0 mm
20:52 23.1 °C 12.7 °C 1017.5 hPa West 1.6 km/h 9.7 km/h 52 % 0.0 mm
20:57 22.8 °C 12.7 °C 1017.5 hPa WNW 1.6 km/h 8.0 km/h 53 % 0.0 mm
21:02 22.8 °C 12.7 °C 1017.5 hPa WNW 1.6 km/h 8.0 km/h 53 % 0.0 mm
21:12 22.4 °C 12.6 °C 1017.5 hPa Calm   8.0 km/h 54 % 0.0 mm
21:17 22.2 °C 12.7 °C 1017.5 hPa Calm   4.8 km/h 55 % 0.0 mm
21:22 21.9 °C 12.7 °C 1017.5 hPa Calm   3.2 km/h 56 % 0.0 mm
21:32 21.6 °C 13.0 °C 1017.8 hPa Calm   3.2 km/h 58 % 0.0 mm
21:42 21.1 °C 13.0 °C 1017.8 hPa Calm   1.6 km/h 60 % 0.0 mm
21:47 20.8 °C 13.0 °C 1017.8 hPa Calm     61 % 0.0 mm
21:52 20.6 °C 13.1 °C 1017.8 hPa Calm     62 % 0.0 mm
21:57 20.4 °C 12.9 °C 1017.8 hPa Calm     62 % 0.0 mm
22:02 20.3 °C 12.8 °C 1017.8 hPa Calm     62 % 0.0 mm
22:12 20.1 °C 12.8 °C 1018.2 hPa Calm     63 % 0.0 mm
22:17 19.9 °C 12.6 °C 1018.2 hPa Calm     63 % 0.0 mm
22:22 19.6 °C 12.6 °C 1018.2 hPa Calm     64 % 0.0 mm
22:32 19.5 °C 12.7 °C 1018.2 hPa Calm     65 % 0.0 mm
22:42 19.3 °C 12.8 °C 1018.2 hPa Calm     66 % 0.0 mm
22:47 19.3 °C 12.8 °C 1018.2 hPa Calm     66 % 0.0 mm
22:52 18.9 °C 12.6 °C 1018.2 hPa Calm     67 % 0.0 mm
22:57 18.7 °C 12.7 °C 1018.2 hPa Calm     68 % 0.0 mm
23:02 18.4 °C 12.6 °C 1018.2 hPa Calm     69 % 0.0 mm
23:17 17.9 °C 12.8 °C 1018.2 hPa Calm     72 % 0.0 mm
23:22 17.8 °C 12.9 °C 1018.2 hPa Calm     73 % 0.0 mm
23:32 17.7 °C 12.8 °C 1018.2 hPa Calm     73 % 0.0 mm
23:37 17.7 °C 13.0 °C 1018.2 hPa Calm     74 % 0.0 mm
23:42 17.5 °C 12.8 °C 1018.2 hPa Calm     74 % 0.0 mm
23:47 17.4 °C 12.7 °C 1018.2 hPa Calm     74 % 0.0 mm
23:52 17.6 °C 12.7 °C 1018.2 hPa Calm     73 % 0.0 mm
23:57 17.7 °C 12.8 °C 1018.5 hPa Calm     73 % 0.0 mm
Meteo18
Compliments of Weather Underground - 4 mb

Script developed by  Jim McMurry - jmcmurry@mwt.net Adapted for the template by  Wim van der Kuil - Leuven-Template.eu

You find our weather info also at:

European Weather Network

Weather Underground

Equipment we use:

Weather-station
Davis Vue

Weather-program
Meteohub

Weather-server
Raspberry PI 2 B+

Provider
1 and 1

Davis Vue

Meteohub

Raspberry PI 2 B+

1 and 1